createdAt,value
2023-09-27T00:01:16.854Z,16.31
2023-09-27T00:03:45.734Z,16.27
2023-09-27T00:06:14.561Z,16.28
2023-09-27T00:08:44.327Z,16.26
2023-09-27T00:11:13.627Z,16.29
2023-09-27T00:13:44.016Z,16.26
2023-09-27T00:16:13.023Z,16.19
2023-09-27T00:18:42.234Z,16.23
2023-09-27T00:21:11.192Z,16.24
2023-09-27T00:23:41.050Z,16.24
2023-09-27T00:26:09.953Z,16.27
2023-09-27T00:28:39.271Z,16.21
2023-09-27T00:31:10.537Z,16.21
2023-09-27T00:33:39.450Z,16.09
2023-09-27T00:36:08.431Z,16.09
2023-09-27T00:38:37.750Z,16.03
2023-09-27T00:41:07.670Z,16.07
2023-09-27T00:43:36.991Z,16.06
2023-09-27T00:46:10.040Z,16.06
2023-09-27T00:48:39.473Z,15.99
2023-09-27T00:51:08.615Z,15.95
2023-09-27T00:53:40.811Z,15.88
2023-09-27T00:56:11.412Z,15.88
2023-09-27T00:58:41.057Z,15.88
2023-09-27T01:01:12.049Z,15.88
2023-09-27T01:03:41.147Z,15.88
2023-09-27T01:06:10.150Z,15.81
2023-09-27T01:08:39.065Z,15.85
2023-09-27T01:11:08.384Z,15.82
2023-09-27T01:13:37.351Z,15.76
2023-09-27T01:16:06.608Z,15.78
2023-09-27T01:18:36.861Z,15.77
2023-09-27T01:21:05.821Z,15.73
2023-09-27T01:23:38.674Z,15.66
2023-09-27T01:26:10.072Z,15.60
2023-09-27T01:28:43.132Z,15.64
2023-09-27T01:31:12.054Z,15.58
2023-09-27T01:33:40.940Z,15.57
2023-09-27T01:36:09.923Z,15.51
2023-09-27T01:38:40.601Z,15.51
2023-09-27T01:41:09.690Z,15.55
2023-09-27T01:43:38.585Z,15.54
2023-09-27T01:46:07.484Z,15.59
2023-09-27T01:48:36.372Z,15.60
2023-09-27T01:51:05.479Z,15.63
2023-09-27T01:53:34.295Z,15.63
2023-09-27T01:56:06.291Z,15.70
2023-09-27T01:58:35.357Z,15.68
2023-09-27T02:01:05.013Z,15.71
2023-09-27T02:03:34.363Z,15.71
2023-09-27T02:06:03.261Z,15.69
2023-09-27T02:08:32.495Z,15.63
2023-09-27T02:11:01.605Z,15.62
2023-09-27T02:13:32.122Z,15.56
2023-09-27T02:16:01.105Z,15.54
2023-09-27T02:18:30.073Z,15.51
2023-09-27T02:20:58.980Z,15.50
2023-09-27T02:23:28.553Z,15.46
2023-09-27T02:26:00.231Z,15.47
2023-09-27T02:28:29.113Z,15.49
2023-09-27T02:31:00.371Z,15.48
2023-09-27T02:33:29.924Z,15.47
2023-09-27T02:35:59.881Z,15.45
2023-09-27T02:38:28.869Z,15.45
2023-09-27T02:40:58.174Z,15.38
2023-09-27T02:43:27.079Z,15.34
2023-09-27T02:45:56.110Z,15.35
2023-09-27T02:48:26.812Z,15.38
2023-09-27T02:50:56.745Z,15.38
2023-09-27T02:53:25.793Z,15.44
2023-09-27T02:55:54.631Z,15.39
2023-09-27T02:58:24.845Z,15.35
2023-09-27T03:00:54.023Z,15.40
2023-09-27T03:03:22.968Z,15.40
2023-09-27T03:05:53.469Z,15.42
2023-09-27T03:08:22.390Z,15.42
2023-09-27T03:10:51.284Z,15.38
2023-09-27T03:13:20.924Z,15.38
2023-09-27T03:15:58.034Z,15.38
2023-09-27T03:18:27.874Z,15.39
2023-09-27T03:20:58.219Z,15.38
2023-09-27T03:23:27.283Z,15.37
2023-09-27T03:25:58.004Z,15.37
2023-09-27T03:28:27.038Z,15.38
2023-09-27T03:30:56.293Z,15.40
2023-09-27T03:33:25.302Z,15.36
2023-09-27T03:35:54.598Z,15.37
2023-09-27T03:38:28.660Z,15.37
2023-09-27T03:40:57.640Z,15.41
2023-09-27T03:43:26.563Z,15.45
2023-09-27T03:45:56.639Z,15.41
2023-09-27T03:48:25.714Z,15.43
2023-09-27T03:50:54.613Z,15.36
2023-09-27T03:53:23.514Z,15.37
2023-09-27T03:55:53.809Z,15.39
2023-09-27T03:58:23.478Z,15.35
2023-09-27T04:00:52.329Z,15.34
2023-09-27T04:03:21.616Z,15.35
2023-09-27T04:05:50.693Z,15.29
2023-09-27T04:08:19.475Z,15.26
2023-09-27T04:10:48.536Z,15.22
2023-09-27T04:13:18.704Z,15.21
2023-09-27T04:15:51.243Z,15.23
2023-09-27T04:18:20.412Z,15.18
2023-09-27T04:20:49.365Z,15.13
2023-09-27T04:23:18.656Z,15.22
2023-09-27T04:25:47.520Z,15.19
2023-09-27T04:28:16.462Z,15.17
2023-09-27T04:30:46.675Z,15.18
2023-09-27T04:33:17.038Z,15.15
2023-09-27T04:35:46.024Z,15.14
2023-09-27T04:38:16.491Z,15.10
2023-09-27T04:40:45.402Z,15.08
2023-09-27T04:43:14.126Z,15.06
2023-09-27T04:45:43.215Z,15.09
2023-09-27T04:48:13.825Z,15.11
2023-09-27T04:50:42.951Z,15.17
2023-09-27T04:53:11.788Z,15.19
2023-09-27T04:55:41.045Z,15.24
2023-09-27T04:58:09.813Z,15.23
2023-09-27T05:00:38.757Z,15.27
2023-09-27T05:03:08.868Z,15.30
2023-09-27T05:05:39.330Z,15.29
2023-09-27T05:08:08.239Z,15.30
2023-09-27T05:10:37.506Z,15.31
2023-09-27T05:13:06.775Z,15.33
2023-09-27T05:15:35.641Z,15.36
2023-09-27T05:18:04.536Z,15.32
2023-09-27T05:20:33.573Z,15.34
2023-09-27T05:23:03.857Z,15.38
2023-09-27T05:25:33.164Z,15.41
2023-09-27T05:28:01.868Z,15.46
2023-09-27T05:30:30.678Z,15.52
2023-09-27T05:32:59.753Z,15.58
2023-09-27T05:35:28.868Z,15.64
2023-09-27T05:37:58.812Z,15.72
2023-09-27T05:40:29.277Z,15.80
2023-09-27T05:42:59.838Z,15.87
2023-09-27T05:45:30.307Z,16.00
2023-09-27T05:47:59.142Z,16.08
2023-09-27T05:50:28.107Z,16.17
2023-09-27T05:52:57.680Z,16.22
2023-09-27T05:55:27.455Z,16.25
2023-09-27T05:57:57.212Z,16.31
2023-09-27T06:00:28.625Z,16.42
2023-09-27T06:02:57.645Z,16.48
2023-09-27T06:05:26.556Z,16.58
2023-09-27T06:07:55.409Z,16.67
2023-09-27T06:10:24.242Z,16.77
2023-09-27T06:12:53.037Z,16.85
2023-09-27T06:15:23.420Z,16.97
2023-09-27T06:17:52.973Z,17.01
2023-09-27T06:20:24.593Z,17.13
2023-09-27T06:22:55.028Z,17.20
2023-09-27T06:25:30.388Z,17.28
2023-09-27T06:27:59.372Z,17.40
2023-09-27T06:30:29.962Z,17.50
2023-09-27T06:32:59.103Z,17.61
2023-09-27T06:35:28.082Z,17.69
2023-09-27T06:37:56.942Z,17.75
2023-09-27T06:40:26.468Z,17.82
2023-09-27T06:42:56.112Z,17.90
2023-09-27T06:45:25.322Z,17.97
2023-09-27T06:47:57.527Z,18.02
2023-09-27T06:50:26.690Z,18.11
2023-09-27T06:53:10.728Z,18.23
2023-09-27T06:55:46.104Z,18.37
2023-09-27T06:58:16.096Z,18.46
2023-09-27T07:00:45.048Z,18.50
2023-09-27T07:03:15.428Z,18.58
2023-09-27T07:05:44.394Z,18.69
2023-09-27T07:08:13.096Z,18.79
2023-09-27T07:10:42.711Z,18.84
2023-09-27T07:13:11.139Z,18.96
2023-09-27T07:15:39.976Z,19.03
2023-09-27T07:18:09.494Z,19.13
2023-09-27T07:20:41.695Z,19.22
2023-09-27T07:23:16.488Z,19.29
2023-09-27T07:25:46.064Z,19.35
2023-09-27T07:28:14.742Z,19.50
2023-09-27T07:30:43.677Z,19.58
2023-09-27T07:33:13.252Z,19.70
2023-09-27T07:35:45.534Z,19.77
2023-09-27T07:38:15.476Z,19.89
2023-09-27T07:40:48.111Z,19.99
2023-09-27T07:43:17.514Z,20.09
2023-09-27T07:45:48.719Z,20.16
2023-09-27T07:48:22.811Z,20.25
2023-09-27T07:50:54.871Z,20.38
2023-09-27T07:53:23.885Z,20.52
2023-09-27T07:55:55.480Z,20.65
2023-09-27T07:58:24.374Z,20.76
2023-09-27T08:00:53.152Z,20.83
2023-09-27T08:03:23.565Z,20.93
2023-09-27T08:05:54.431Z,21.05
2023-09-27T08:08:25.105Z,21.18
2023-09-27T08:10:54.296Z,21.29
2023-09-27T08:13:22.949Z,21.38
2023-09-27T08:15:51.821Z,21.45
2023-09-27T08:18:21.160Z,21.50
2023-09-27T08:20:50.069Z,21.58
2023-09-27T08:23:20.353Z,21.71
2023-09-27T08:25:49.357Z,21.86
2023-09-27T08:28:18.646Z,22.02
2023-09-27T08:30:48.610Z,22.15
2023-09-27T08:33:17.588Z,22.22
2023-09-27T08:35:47.155Z,22.34
2023-09-27T08:38:15.883Z,22.42
2023-09-27T08:40:48.496Z,22.53
2023-09-27T08:43:17.808Z,22.67
2023-09-27T08:45:48.836Z,22.73
2023-09-27T08:48:21.935Z,22.84
2023-09-27T08:50:52.490Z,22.91
2023-09-27T08:53:21.398Z,22.93
2023-09-27T08:55:54.499Z,23.04
2023-09-27T08:58:28.995Z,23.10
2023-09-27T09:00:58.630Z,23.16
2023-09-27T09:03:28.262Z,23.21
2023-09-27T09:05:58.079Z,23.32
2023-09-27T09:08:42.641Z,23.40
2023-09-27T09:11:18.113Z,23.50
2023-09-27T09:13:58.695Z,23.57
2023-09-27T09:16:27.621Z,23.70
2023-09-27T09:18:59.154Z,23.81
2023-09-27T09:21:29.831Z,23.94
2023-09-27T09:23:58.740Z,24.05
2023-09-27T09:26:31.141Z,24.15
2023-09-27T09:29:01.908Z,24.24
2023-09-27T09:31:35.041Z,24.30
2023-09-27T09:34:05.823Z,24.37
2023-09-27T09:36:37.375Z,24.54
2023-09-27T09:39:08.169Z,24.58
2023-09-27T09:41:50.030Z,24.55
2023-09-27T09:44:21.301Z,24.63
2023-09-27T09:46:51.160Z,24.76
2023-09-27T09:49:20.193Z,24.87
2023-09-27T09:51:50.241Z,24.93
2023-09-27T09:54:29.458Z,25.10
2023-09-27T09:57:09.073Z,25.25
2023-09-27T09:59:52.366Z,25.32
2023-09-27T10:02:24.771Z,25.38
2023-09-27T10:04:57.842Z,25.46
2023-09-27T10:07:28.382Z,25.67
2023-09-27T10:09:59.595Z,25.87
2023-09-27T10:12:30.347Z,25.93
2023-09-27T10:14:59.988Z,25.91
2023-09-27T10:17:31.992Z,26.00
2023-09-27T10:20:13.733Z,26.15
2023-09-27T10:22:44.459Z,26.38
2023-09-27T10:25:34.468Z,26.50
2023-09-27T10:28:13.636Z,26.82
2023-09-27T10:31:05.799Z,26.77
2023-09-27T10:33:35.833Z,26.67
2023-09-27T10:36:25.288Z,26.79
2023-09-27T10:39:07.062Z,26.87
2023-09-27T10:41:47.962Z,27.01
2023-09-27T10:44:31.729Z,27.17
2023-09-27T10:47:02.411Z,27.49
2023-09-27T10:49:39.249Z,27.61
2023-09-27T10:52:18.711Z,27.44
2023-09-27T10:54:48.290Z,27.40
2023-09-27T10:57:17.775Z,27.55
2023-09-27T10:59:52.264Z,27.68
2023-09-27T11:02:31.126Z,27.72
2023-09-27T11:05:00.126Z,27.78
2023-09-27T11:07:44.623Z,27.81
2023-09-27T11:10:13.572Z,27.87
2023-09-27T11:12:42.314Z,27.83
2023-09-27T11:15:14.213Z,28.01
2023-09-27T11:17:43.161Z,28.03
2023-09-27T11:20:13.288Z,28.14
2023-09-27T11:22:42.600Z,28.09
2023-09-27T11:25:29.368Z,28.21
2023-09-27T11:27:58.347Z,28.13
2023-09-27T11:30:33.611Z,28.19
2023-09-27T11:33:06.705Z,28.31
2023-09-27T11:35:37.385Z,28.43
2023-09-27T11:38:08.819Z,28.63
2023-09-27T11:40:39.437Z,28.66
2023-09-27T11:43:08.721Z,28.57
2023-09-27T11:45:56.454Z,28.45
2023-09-27T11:48:34.566Z,28.62
2023-09-27T11:51:04.000Z,28.82
2023-09-27T11:53:32.830Z,28.90
2023-09-27T11:56:02.667Z,28.95
2023-09-27T11:58:31.377Z,28.89
2023-09-27T12:01:01.699Z,29.01
2023-09-27T12:03:30.738Z,29.11
2023-09-27T12:06:00.407Z,29.13
2023-09-27T12:08:29.552Z,29.27
2023-09-27T12:11:00.892Z,29.41
2023-09-27T12:13:30.055Z,29.24
2023-09-27T12:15:58.544Z,29.37
2023-09-27T12:18:28.690Z,29.47
2023-09-27T12:20:58.004Z,29.49
2023-09-27T12:23:27.040Z,29.48
2023-09-27T12:25:56.951Z,29.63
2023-09-27T12:28:27.265Z,29.54
2023-09-27T12:30:56.161Z,29.76
2023-09-27T12:33:26.137Z,29.83
2023-09-27T12:35:56.569Z,29.59
2023-09-27T12:38:26.273Z,29.70
2023-09-27T12:40:55.447Z,29.88
2023-09-27T12:43:24.457Z,29.94
2023-09-27T12:45:53.073Z,30.02
2023-09-27T12:48:22.078Z,29.90
2023-09-27T12:50:51.118Z,29.80
2023-09-27T12:53:21.567Z,29.87
2023-09-27T12:55:50.609Z,29.94
2023-09-27T12:58:19.338Z,29.96
2023-09-27T13:00:48.292Z,29.66
2023-09-27T13:03:17.190Z,29.61
2023-09-27T13:05:46.123Z,29.71
2023-09-27T13:08:14.997Z,29.96
2023-09-27T13:10:45.016Z,29.96
2023-09-27T13:13:13.885Z,29.93
2023-09-27T13:15:42.707Z,29.99
2023-09-27T13:18:11.616Z,30.03
2023-09-27T13:20:40.475Z,30.02
2023-09-27T13:23:09.403Z,30.14
2023-09-27T13:25:38.260Z,30.15
2023-09-27T13:28:08.679Z,30.17
2023-09-27T13:30:37.951Z,29.92
2023-09-27T13:33:06.931Z,29.87
2023-09-27T13:35:37.155Z,29.89
2023-09-27T13:38:07.795Z,29.77
2023-09-27T13:40:37.422Z,29.72
2023-09-27T13:43:08.058Z,29.76
2023-09-27T13:45:37.615Z,29.76
2023-09-27T13:48:08.301Z,29.76
2023-09-27T13:50:37.325Z,29.83
2023-09-27T13:53:06.342Z,29.75
2023-09-27T13:55:35.333Z,29.65
2023-09-27T13:58:04.768Z,29.53
2023-09-27T14:00:35.297Z,29.42
2023-09-27T14:03:04.250Z,29.38
2023-09-27T14:05:33.268Z,29.35
2023-09-27T14:08:02.000Z,29.36
2023-09-27T14:10:30.883Z,29.36
2023-09-27T14:13:01.313Z,29.31
2023-09-27T14:15:30.579Z,29.29
2023-09-27T14:18:01.179Z,29.23
2023-09-27T14:20:30.290Z,29.15
2023-09-27T14:22:59.819Z,29.08
2023-09-27T14:25:28.870Z,28.99
2023-09-27T14:27:59.125Z,28.91
2023-09-27T14:30:28.124Z,28.84
2023-09-27T14:38:04.566Z,28.54
2023-09-27T14:40:33.507Z,28.48
2023-09-27T14:43:02.222Z,28.44
2023-09-27T14:45:32.879Z,28.44
2023-09-27T14:48:03.187Z,28.27
2023-09-27T14:50:33.791Z,28.03
2023-09-27T14:53:02.724Z,27.81
2023-09-27T14:55:31.681Z,27.70
2023-09-27T14:58:01.025Z,27.51
2023-09-27T15:00:32.923Z,27.36
2023-09-27T15:03:02.117Z,27.09
2023-09-27T15:05:30.936Z,26.86
2023-09-27T15:08:01.311Z,26.65
2023-09-27T15:10:30.184Z,26.44
2023-09-27T15:12:59.088Z,26.28
2023-09-27T15:15:28.155Z,26.11
2023-09-27T15:17:56.893Z,25.91
2023-09-27T15:20:25.823Z,25.66
2023-09-27T15:22:55.284Z,25.55
2023-09-27T15:25:25.806Z,25.45
2023-09-27T15:27:56.173Z,25.29
2023-09-27T15:30:24.960Z,25.15
2023-09-27T15:32:53.820Z,25.05
2023-09-27T15:35:22.842Z,25.03
2023-09-27T15:37:55.620Z,24.91
2023-09-27T15:40:26.025Z,24.85
2023-09-27T15:42:57.007Z,24.77
2023-09-27T15:45:25.829Z,24.73
2023-09-27T15:47:55.256Z,24.82
2023-09-27T15:50:24.239Z,24.91
2023-09-27T15:52:53.123Z,24.95
2023-09-27T15:55:22.183Z,24.95
2023-09-27T15:57:53.139Z,24.86
2023-09-27T16:00:22.185Z,24.66
2023-09-27T16:02:50.932Z,24.45
2023-09-27T16:05:19.814Z,24.27
2023-09-27T16:07:48.675Z,24.13
2023-09-27T16:10:17.532Z,24.03
2023-09-27T16:12:46.398Z,23.90
2023-09-27T16:15:16.714Z,23.76
2023-09-27T16:17:45.582Z,23.63
2023-09-27T16:20:14.349Z,23.50
2023-09-27T16:22:43.231Z,23.43
2023-09-27T16:25:12.336Z,23.37
2023-09-27T16:27:41.297Z,23.43
2023-09-27T16:30:12.839Z,23.39
2023-09-27T16:32:44.988Z,23.25
2023-09-27T16:35:14.308Z,23.13
2023-09-27T16:37:43.254Z,23.06
2023-09-27T16:40:13.029Z,22.97
2023-09-27T16:42:42.011Z,22.86
2023-09-27T16:45:11.647Z,22.79
2023-09-27T16:47:40.969Z,22.82
2023-09-27T16:50:13.436Z,22.92
2023-09-27T16:52:42.388Z,22.93
2023-09-27T16:55:12.524Z,22.90
2023-09-27T16:57:41.719Z,22.73
2023-09-27T17:00:12.765Z,22.60
2023-09-27T17:02:42.691Z,22.46
2023-09-27T17:05:13.936Z,22.42
2023-09-27T17:07:42.781Z,22.28
2023-09-27T17:10:13.507Z,22.20
2023-09-27T17:12:42.747Z,22.14
2023-09-27T17:15:12.791Z,22.06
2023-09-27T17:17:41.806Z,21.93
2023-09-27T17:20:11.707Z,21.75
2023-09-27T17:22:41.936Z,21.65
2023-09-27T17:25:12.681Z,21.53
2023-09-27T17:27:41.673Z,21.48
2023-09-27T17:30:11.358Z,21.41
2023-09-27T17:32:40.563Z,21.31
2023-09-27T17:35:11.595Z,21.25
2023-09-27T17:37:41.916Z,21.16
2023-09-27T17:40:11.347Z,21.12
2023-09-27T17:42:40.100Z,21.03
2023-09-27T17:45:10.177Z,20.96
2023-09-27T17:47:39.042Z,20.89
2023-09-27T17:50:09.370Z,20.81
2023-09-27T17:52:38.224Z,20.78
2023-09-27T17:55:09.785Z,20.76
2023-09-27T17:57:38.652Z,20.76
2023-09-27T18:00:10.105Z,20.75
2023-09-27T18:02:39.207Z,20.73
2023-09-27T18:05:08.880Z,20.71
2023-09-27T18:07:37.700Z,20.65
2023-09-27T18:10:09.312Z,20.59
2023-09-27T18:12:38.053Z,20.52
2023-09-27T18:15:21.238Z,20.47
2023-09-27T18:17:54.764Z,20.38
2023-09-27T18:20:23.720Z,20.27
2023-09-27T18:22:52.791Z,20.30
2023-09-27T18:25:23.303Z,20.19
2023-09-27T18:27:52.137Z,20.10
2023-09-27T18:30:22.078Z,20.05
2023-09-27T18:32:50.947Z,20.05
2023-09-27T18:35:20.073Z,20.01
2023-09-27T18:37:48.892Z,19.94
2023-09-27T18:40:20.229Z,19.90
2023-09-27T18:42:50.549Z,19.85
2023-09-27T18:45:20.937Z,19.79
2023-09-27T18:47:51.995Z,19.75
2023-09-27T18:50:22.061Z,19.74
2023-09-27T18:52:51.792Z,19.70
2023-09-27T18:55:20.684Z,19.62
2023-09-27T18:57:50.927Z,19.54
2023-09-27T19:00:19.864Z,19.52
2023-09-27T19:02:49.168Z,19.52
2023-09-27T19:05:17.911Z,19.44
2023-09-27T19:07:46.728Z,19.38
2023-09-27T19:10:15.724Z,19.27
2023-09-27T19:12:44.457Z,19.24
2023-09-27T19:15:14.883Z,19.21
2023-09-27T19:17:43.869Z,19.13
2023-09-27T19:20:13.122Z,19.07
2023-09-27T19:22:42.079Z,19.01
2023-09-27T19:25:11.048Z,18.89
2023-09-27T19:27:39.918Z,18.82
2023-09-27T19:30:10.017Z,18.77
2023-09-27T19:32:40.718Z,18.78
2023-09-27T19:35:10.269Z,18.79
2023-09-27T19:37:38.713Z,18.78
2023-09-27T19:40:11.168Z,18.74
2023-09-27T19:42:41.524Z,18.76
2023-09-27T19:45:11.499Z,18.73
2023-09-27T19:47:42.024Z,18.72
2023-09-27T19:50:11.258Z,18.70
2023-09-27T19:52:41.125Z,18.65
2023-09-27T19:55:11.349Z,18.64
2023-09-27T19:57:40.258Z,18.68
2023-09-27T20:00:18.671Z,18.57
2023-09-27T20:02:50.360Z,18.47
2023-09-27T20:05:19.363Z,18.48
2023-09-27T20:07:49.539Z,18.48
2023-09-27T20:10:18.592Z,18.48
2023-09-27T20:12:47.464Z,18.38
2023-09-27T20:15:16.472Z,18.33
2023-09-27T20:17:45.277Z,18.27
2023-09-27T20:20:15.704Z,18.24
2023-09-27T20:22:44.884Z,18.18
2023-09-27T20:25:13.972Z,18.18
2023-09-27T20:27:43.459Z,18.08
2023-09-27T20:30:13.507Z,18.07
2023-09-27T20:32:42.887Z,18.09
2023-09-27T20:35:12.088Z,18.12
2023-09-27T20:37:43.165Z,18.06
2023-09-27T20:40:13.194Z,18.05
2023-09-27T20:42:42.145Z,18.02
2023-09-27T20:45:11.604Z,18.01
2023-09-27T20:47:40.297Z,17.92
2023-09-27T20:50:12.397Z,17.89
2023-09-27T20:52:42.840Z,17.82
2023-09-27T20:55:12.227Z,17.78
2023-09-27T20:57:41.690Z,17.76
2023-09-27T21:00:11.953Z,17.73
2023-09-27T21:02:42.171Z,17.64
2023-09-27T21:05:11.292Z,17.54
2023-09-27T21:07:40.288Z,17.54
2023-09-27T21:10:10.966Z,17.48
2023-09-27T21:12:39.776Z,17.48
2023-09-27T21:15:09.701Z,17.48
2023-09-27T21:17:38.526Z,17.40
2023-09-27T21:20:08.622Z,17.41
2023-09-27T21:22:37.537Z,17.42
2023-09-27T21:25:07.305Z,17.40
2023-09-27T21:27:38.043Z,17.34
2023-09-27T21:30:09.136Z,17.25
2023-09-27T21:32:38.197Z,17.25
2023-09-27T21:35:08.345Z,17.28
2023-09-27T21:37:37.623Z,17.30
2023-09-27T21:40:08.164Z,17.29
2023-09-27T21:42:38.510Z,17.34
2023-09-27T21:45:09.354Z,17.27
2023-09-27T21:47:38.308Z,17.24
2023-09-27T21:50:08.470Z,17.15
2023-09-27T21:52:37.573Z,17.15
2023-09-27T21:55:07.818Z,17.11
2023-09-27T21:57:38.848Z,17.10
2023-09-27T22:00:21.482Z,17.03
2023-09-27T22:02:50.491Z,16.97
2023-09-27T22:05:20.943Z,16.96
2023-09-27T22:07:50.030Z,16.89
2023-09-27T22:10:20.089Z,16.88
2023-09-27T22:12:53.737Z,16.89
2023-09-27T22:15:25.041Z,16.88
2023-09-27T22:17:56.195Z,16.79
2023-09-27T22:20:25.222Z,16.62
2023-09-27T22:22:54.595Z,16.63
2023-09-27T22:25:26.977Z,16.43
2023-09-27T22:27:58.810Z,16.46
2023-09-27T22:30:27.706Z,16.45
2023-09-27T22:33:04.709Z,16.49
2023-09-27T22:35:34.018Z,16.51
2023-09-27T22:38:09.780Z,16.42
2023-09-27T22:40:38.707Z,16.43
2023-09-27T22:43:14.533Z,16.37
2023-09-27T22:45:44.011Z,16.29
2023-09-27T22:48:15.127Z,16.21
2023-09-27T22:50:49.129Z,16.29
2023-09-27T22:53:19.926Z,16.35
2023-09-27T22:55:52.338Z,16.31
2023-09-27T22:58:23.455Z,16.35
2023-09-27T23:00:59.033Z,16.40
2023-09-27T23:03:30.935Z,16.29
2023-09-27T23:06:03.258Z,16.24
2023-09-27T23:08:39.327Z,16.29
2023-09-27T23:11:10.739Z,16.34
2023-09-27T23:13:49.911Z,16.40
2023-09-27T23:16:29.628Z,16.34
2023-09-27T23:19:02.057Z,16.30
2023-09-27T23:21:33.450Z,16.25
2023-09-27T23:24:24.253Z,16.27
2023-09-27T23:27:04.925Z,16.33
2023-09-27T23:29:38.046Z,16.32
2023-09-27T23:32:19.254Z,16.20
2023-09-27T23:34:49.722Z,16.14
2023-09-27T23:37:19.873Z,16.08
2023-09-27T23:39:49.551Z,16.03
2023-09-27T23:42:24.793Z,16.04
2023-09-27T23:44:56.700Z,15.98
2023-09-27T23:47:26.310Z,15.87
2023-09-27T23:49:58.566Z,15.85
2023-09-27T23:52:30.272Z,15.85
2023-09-27T23:55:03.975Z,15.78
2023-09-27T23:57:33.956Z,15.76
